Time;durP1;ratioP1;P1;durP2;ratioP2;P2;SDS_P1;SDS_P2;PMS_P1;PMS_P2;Temp;Humidity;BMP_temperature;BMP_pressure;BME280_temperature;BME280_humidity;BME280_pressure;Samples;Min_cycle;Max_cycle;Signal;HPM_P1;HPM_P2
2021/05/27 00:02:14;;;;;;;;;;;;;;;20.05;39.85;99870.59;4428958;32;19956;-58
2021/05/27 00:04:40;;;;;;;;;;;;;;;20.00;40.22;99867.03;4432836;32;20331;-58
2021/05/27 00:07:06;;;;;;;;;;;;;;;20.00;39.86;99862.66;4421435;32;19997;-57
2021/05/27 00:09:32;;;;;;;;;;;;;;;19.96;40.18;99874.06;4426473;32;19954;-55
2021/05/27 00:11:58;;;;;;;;;;;;;;;20.02;39.67;99873.22;4432051;32;19958;-57
2021/05/27 00:14:24;;;;;;;;;;;;;;;19.99;40.28;99878.50;4433089;32;20295;-59
2021/05/27 00:16:49;;;;;;;;;;;;;;;20.00;39.86;99878.50;4425520;32;19950;-58
2021/05/27 00:19:15;;;;;;;;;;;;;;;19.99;39.78;99873.22;4416067;32;19974;-58
2021/05/27 00:21:41;;;;;;;;;;;;;;;20.05;39.52;99870.59;4424267;32;19998;-58
2021/05/27 00:24:07;;;;;;;;;;;;;;;20.04;39.12;99877.66;4432725;32;19938;-57
2021/05/27 00:26:33;;;;;;;;;;;;;;;19.94;40.06;99874.06;4427796;32;20335;-57
2021/05/27 00:28:59;;;;;;;;;;;;;;;19.99;39.83;99867.94;4418448;32;19946;-58
2021/05/27 00:31:25;;;;;;;;;;;;;;;20.05;39.49;99862.66;4421865;32;19957;-57
2021/05/27 00:33:51;;;;;;;;;;;;;;;19.86;39.83;99865.16;4434270;32;19954;-57
2021/05/27 00:36:16;;;;;;;;;;;;;;;19.94;39.62;99876.72;4430328;32;20389;-57
2021/05/27 00:38:42;;;;;;;;;;;;;;;19.98;39.50;99871.44;4417124;32;20020;-54
2021/05/27 00:41:08;;;;;;;;;;;;;;;19.92;39.60;99873.16;4423759;32;19989;-58
2021/05/27 00:43:34;;;;;;;;;;;;;;;19.95;39.86;99869.66;4433725;32;19972;-56
2021/05/27 00:46:00;;;;;;;;;;;;;;;19.87;39.62;99869.59;4433982;32;19954;-56
2021/05/27 00:51:11;;;;;;;;;;;;;;;19.89;39.47;99873.09;4432613;32;19994;-56
2021/05/27 00:53:37;;;;;;;;;;;;;;;19.94;39.63;99876.72;4418154;32;20423;-56
2021/05/27 00:56:03;;;;;;;;;;;;;;;19.91;39.88;99868.72;4417621;32;19994;-58
2021/05/27 00:58:29;;;;;;;;;;;;;;;19.90;39.72;99872.22;4432012;32;20009;-56
2021/05/27 01:00:54;;;;;;;;;;;;;;;19.94;39.48;99874.06;4433252;32;20301;-58
2021/05/27 01:03:20;;;;;;;;;;;;;;;19.91;40.14;99866.06;4420631;32;20059;-57
2021/05/27 01:05:46;;;;;;;;;;;;;;;19.93;39.43;99874.06;4418231;32;20024;-58
2021/05/27 01:08:12;;;;;;;;;;;;;;;19.84;39.58;99874.84;4428325;32;19949;-58
2021/05/27 01:10:38;;;;;;;;;;;;;;;19.78;40.27;99880.09;4432074;32;20041;-56
2021/05/27 01:13:04;;;;;;;;;;;;;;;19.80;40.16;99878.31;4430654;32;19969;-58
2021/05/27 01:15:31;;;;;;;;;;;;;;;19.79;39.86;99876.56;4432682;32;19965;-57
2021/05/27 01:17:57;;;;;;;;;;;;;;;19.78;39.76;99874.78;4423208;32;19954;-58
2021/05/27 01:20:23;;;;;;;;;;;;;;;19.78;39.87;99882.72;4416160;32;20350;-57
2021/05/27 01:22:49;;;;;;;;;;;;;;;19.73;40.60;99880.03;4423971;32;20000;-56
2021/05/27 01:25:15;;;;;;;;;;;;;;;19.79;40.56;99879.19;4431623;32;19953;-56
2021/05/27 01:27:40;;;;;;;;;;;;;;;19.72;40.53;99882.69;4425520;32;19979;-58
2021/05/27 01:30:06;;;;;;;;;;;;;;;19.85;39.82;99881.00;4399943;32;19963;-58
2021/05/27 01:32:32;;;;;;;;;;;;;;;19.75;40.77;99880.06;4420519;32;19938;-56
2021/05/27 01:34:58;;;;;;;;;;;;;;;19.74;39.80;99883.59;4432434;32;19989;-55
2021/05/27 01:37:24;;;;;;;;;;;;;;;19.83;39.69;99882.75;4428343;32;19962;-57
2021/05/27 01:39:50;;;;;;;;;;;;;;;19.82;39.89;99884.53;4415835;32;19950;-56
2021/05/27 01:42:16;;;;;;;;;;;;;;;19.80;40.11;99878.31;4417992;32;19965;-56
2021/05/27 01:44:42;;;;;;;;;;;;;;;19.82;39.82;99892.47;4430465;32;20022;-56
2021/05/27 01:47:07;;;;;;;;;;;;;;;19.87;39.76;99885.44;4430721;32;20157;-57
2021/05/27 01:49:33;;;;;;;;;;;;;;;19.81;40.12;99885.38;4430114;32;19958;-58
2021/05/27 01:51:59;;;;;;;;;;;;;;;19.77;40.05;99883.59;4432649;32;19991;-57
2021/05/27 01:54:25;;;;;;;;;;;;;;;19.69;39.97;99886.19;4418033;32;20353;-57
2021/05/27 01:56:51;;;;;;;;;;;;;;;19.71;40.20;99880.94;4417825;32;19934;-57
2021/05/27 01:59:17;;;;;;;;;;;;;;;19.71;40.24;99878.28;4429153;32;19954;-58
2021/05/27 02:01:43;;;;;;;;;;;;;;;19.79;40.03;99884.50;4432930;32;20311;-58
2021/05/27 02:04:09;;;;;;;;;;;;;;;19.77;40.37;99884.50;4420819;32;19993;-57
2021/05/27 02:06:35;;;;;;;;;;;;;;;19.70;40.49;99882.66;4417323;32;20017;-58
2021/05/27 02:09:10;;;;;;;;;;;;;;;19.69;40.28;99880.91;4426954;32;19954;-58
2021/05/27 02:11:36;;;;;;;;;;;;;;;19.76;40.04;99887.13;4432329;32;19954;-57
2021/05/27 02:14:02;;;;;;;;;;;;;;;19.78;39.93;99885.38;4422572;32;20622;-57
2021/05/27 02:16:28;;;;;;;;;;;;;;;19.79;40.12;99876.56;4416521;32;20344;-56
2021/05/27 02:18:54;;;;;;;;;;;;;;;19.76;40.30;99881.84;4425376;32;20403;-59
2021/05/27 02:21:19;;;;;;;;;;;;;;;19.78;40.18;99880.09;4431809;32;19960;-56
2021/05/27 02:23:45;;;;;;;;;;;;;;;19.79;40.03;99877.47;4425221;32;19946;-58
2021/05/27 02:26:11;;;;;;;;;;;;;;;19.76;40.39;99881.84;4415756;32;19997;-57
2021/05/27 02:28:37;;;;;;;;;;;;;;;19.73;40.29;99887.09;4422455;32;20378;-57
2021/05/27 02:31:03;;;;;;;;;;;;;;;19.78;39.84;99888.91;4431920;32;19946;-58
2021/05/27 02:33:29;;;;;;;;;;;;;;;19.72;40.19;99887.97;4428445;32;20558;-57
2021/05/27 02:35:55;;;;;;;;;;;;;;;19.75;39.94;99901.19;4416711;32;19964;-57
2021/05/27 02:38:21;;;;;;;;;;;;;;;19.78;40.64;99890.66;4419821;32;19961;-57
2021/05/27 02:40:47;;;;;;;;;;;;;;;19.71;39.87;99891.50;4431660;32;19987;-58
2021/05/27 02:43:13;;;;;;;;;;;;;;;19.77;40.11;99895.06;4430158;32;20015;-58
2021/05/27 02:45:39;;;;;;;;;;;;;;;19.71;40.37;99884.44;4419537;32;20023;-59
2021/05/27 02:48:04;;;;;;;;;;;;;;;19.77;39.93;99891.53;4431911;32;19946;-59
2021/05/27 02:50:30;;;;;;;;;;;;;;;19.66;40.79;99881.75;4431464;32;20345;-57
2021/05/27 02:52:56;;;;;;;;;;;;;;;19.67;40.74;99883.53;4431262;32;19964;-57
2021/05/27 02:55:22;;;;;;;;;;;;;;;19.66;40.42;99881.75;4431728;32;19961;-59
2021/05/27 02:57:48;;;;;;;;;;;;;;;19.76;40.49;99892.41;4432555;32;19946;-55
2021/05/27 03:00:14;;;;;;;;;;;;;;;19.64;40.26;99883.50;4403695;32;19954;-56
2021/05/27 03:02:40;;;;;;;;;;;;;;;19.70;40.43;99889.72;4416609;32;19950;-57
2021/05/27 03:05:06;;;;;;;;;;;;;;;19.70;40.53;99895.88;4428027;32;19983;-58
2021/05/27 03:07:31;;;;;;;;;;;;;;;19.57;40.61;99891.38;4431633;32;19949;-57
2021/05/27 03:09:57;;;;;;;;;;;;;;;19.70;40.11;99902.94;4421323;32;19954;-58
2021/05/27 03:12:23;;;;;;;;;;;;;;;19.72;40.20;99898.53;4416534;32;20049;-57
2021/05/27 03:14:49;;;;;;;;;;;;;;;19.72;40.21;99898.53;4424723;32;19942;-57
2021/05/27 03:17:15;;;;;;;;;;;;;;;19.69;40.40;99893.22;4430982;32;19950;-58
2021/05/27 03:19:41;;;;;;;;;;;;;;;19.69;39.94;99896.75;4430881;32;19968;-58
2021/05/27 03:22:07;;;;;;;;;;;;;;;19.62;40.72;99895.81;4431916;32;19982;-56
2021/05/27 03:24:33;;;;;;;;;;;;;;;19.58;40.58;99894.03;4425947;32;20312;-56
2021/05/27 03:26:58;;;;;;;;;;;;;;;19.66;40.18;99894.09;4415982;32;20133;-59
2021/05/27 03:29:24;;;;;;;;;;;;;;;19.64;40.20;99894.06;4419635;32;19962;-55
2021/05/27 03:31:50;;;;;;;;;;;;;;;19.58;40.39;99904.59;4432221;32;20502;-58
2021/05/27 03:34:16;;;;;;;;;;;;;;;19.51;40.56;99889.56;4429663;32;19950;-55
2021/05/27 03:36:42;;;;;;;;;;;;;;;19.59;40.57;99903.72;4419033;32;19965;-59
2021/05/27 03:39:08;;;;;;;;;;;;;;;19.65;40.29;99893.19;4419816;32;19973;-55
2021/05/27 03:41:34;;;;;;;;;;;;;;;19.71;40.25;99891.50;4434242;32;19957;-55
2021/05/27 03:44:00;;;;;;;;;;;;;;;19.73;40.23;99887.97;4434084;32;19968;-58
2021/05/27 03:46:25;;;;;;;;;;;;;;;19.63;40.67;99889.66;4418900;32;20268;-55
2021/05/27 03:48:51;;;;;;;;;;;;;;;19.62;40.52;99890.53;4424114;32;20482;-59
2021/05/27 03:51:17;;;;;;;;;;;;;;;19.55;40.90;99891.34;4434144;32;19995;-55
2021/05/27 03:53:43;;;;;;;;;;;;;;;19.62;40.15;99898.47;4434678;32;20001;-56
2021/05/27 03:56:09;;;;;;;;;;;;;;;19.74;39.94;99899.44;4421398;32;19988;-57
2021/05/27 04:01:19;;;;;;;;;;;;;;;19.67;40.35;99902.00;4431787;32;19999;-58
2021/05/27 04:09:15;;;;;;;;;;;;;;;19.59;40.69;99901.09;4417434;32;20412;-59
2021/05/27 04:11:41;;;;;;;;;;;;;;;19.55;40.75;99898.41;4433411;32;19953;-59
2021/05/27 04:14:07;;;;;;;;;;;;;;;19.56;40.61;99906.31;4433986;32;19958;-57
2021/05/27 04:16:32;;;;;;;;;;;;;;;19.58;40.75;99907.25;4421057;32;19977;-58
2021/05/27 04:18:58;;;;;;;;;;;;;;;19.55;40.62;99909.84;4418516;32;19990;-57
2021/05/27 04:21:24;;;;;;;;;;;;;;;19.66;40.12;99913.47;4429742;32;19957;-55
2021/05/27 04:23:50;;;;;;;;;;;;;;;19.64;40.37;99917.84;4434235;32;20339;-56
2021/05/27 04:26:16;;;;;;;;;;;;;;;19.70;40.38;99919.66;4433596;32;19950;-58
2021/05/27 04:28:42;;;;;;;;;;;;;;;19.73;40.38;99924.97;4434118;32;19998;-56
2021/05/27 04:31:11;;;;;;;;;;;;;;;19.62;40.26;99927.53;4432628;32;19966;-57
2021/05/27 04:33:37;;;;;;;;;;;;;;;19.59;40.59;99926.59;4433872;32;19972;-57
2021/05/27 04:36:03;;;;;;;;;;;;;;;19.58;40.31;99925.75;4425835;32;19950;-56
2021/05/27 04:38:29;;;;;;;;;;;;;;;19.57;40.63;99929.25;4419019;32;19946;-57
2021/05/27 04:40:55;;;;;;;;;;;;;;;19.69;40.11;99911.72;4423532;32;19949;-58
2021/05/27 04:43:21;;;;;;;;;;;;;;;19.75;40.07;99924.97;4433848;32;19950;-57
2021/05/27 04:45:47;;;;;;;;;;;;;;;19.74;39.95;99928.50;4428237;32;19958;-58
2021/05/27 04:48:15;;;;;;;;;;;;;;;19.71;40.17;99932.00;4417913;32;19987;-58
2021/05/27 04:50:41;;;;;;;;;;;;;;;19.59;40.49;99932.78;4421934;32;20260;-56
2021/05/27 04:53:07;;;;;;;;;;;;;;;19.64;40.54;99936.34;4433306;32;19986;-57
2021/05/27 04:55:33;;;;;;;;;;;;;;;19.69;40.37;99938.13;4433812;32;20020;-55
2021/05/27 04:57:59;;;;;;;;;;;;;;;19.66;40.29;99937.22;4434332;32;19984;-58
2021/05/27 05:00:24;;;;;;;;;;;;;;;19.72;40.21;99938.16;4430371;32;20409;-55
2021/05/27 05:02:50;;;;;;;;;;;;;;;19.64;40.39;99954.81;4417690;32;19953;-57
2021/05/27 05:05:16;;;;;;;;;;;;;;;19.66;40.44;99952.22;4417526;32;20315;-57
2021/05/27 05:07:42;;;;;;;;;;;;;;;19.69;40.02;99948.69;4432968;32;19962;-57
2021/05/27 05:10:08;;;;;;;;;;;;;;;19.74;40.16;99957.56;4432160;32;19965;-57
2021/05/27 05:12:47;;;;;;;;;;;;;;;19.72;40.11;99948.75;4420149;32;20009;-59
2021/05/27 05:15:12;;;;;;;;;;;;;;;19.70;40.12;99950.50;4417492;32;20026;-53
2021/05/27 05:17:38;;;;;;;;;;;;;;;19.66;40.39;99947.81;4431775;32;19949;-56
2021/05/27 05:20:04;;;;;;;;;;;;;;;19.72;40.13;99936.41;4432190;32;19958;-58
2021/05/27 05:22:30;;;;;;;;;;;;;;;19.71;40.27;99936.41;4426047;32;20258;-58
2021/05/27 05:24:57;;;;;;;;;;;;;;;19.72;40.31;99938.16;4433066;32;19946;-57
2021/05/27 05:27:23;;;;;;;;;;;;;;;19.84;40.10;99943.56;4421352;32;20037;-57
2021/05/27 05:29:48;;;;;;;;;;;;;;;19.82;39.97;99955.87;4416984;32;20008;-56
2021/05/27 05:32:14;;;;;;;;;;;;;;;19.84;40.00;99948.84;4426299;32;19996;-57
2021/05/27 05:34:41;;;;;;;;;;;;;;;19.79;39.98;99945.25;4430384;32;19957;-56
2021/05/27 05:37:07;;;;;;;;;;;;;;;19.76;40.19;99958.44;4433682;32;19946;-58
2021/05/27 05:39:33;;;;;;;;;;;;;;;19.68;40.47;99968.97;4432716;32;19938;-57
2021/05/27 05:41:59;;;;;;;;;;;;;;;19.76;40.06;99966.38;4425065;32;19939;-57
2021/05/27 05:44:24;;;;;;;;;;;;;;;19.72;40.20;99970.75;4424439;32;20159;-55
2021/05/27 05:46:50;;;;;;;;;;;;;;;19.75;40.27;99975.19;4426687;32;19947;-57
2021/05/27 05:49:16;;;;;;;;;;;;;;;19.80;40.29;99984.00;4424627;32;19950;-58
2021/05/27 05:51:42;;;;;;;;;;;;;;;19.75;40.01;99981.31;4425489;32;20021;-56
2021/05/27 05:54:08;;;;;;;;;;;;;;;19.85;40.08;99982.31;4425764;32;19973;-58
2021/05/27 05:56:34;;;;;;;;;;;;;;;19.85;39.87;99984.97;4425223;32;19950;-58
2021/05/27 05:59:00;;;;;;;;;;;;;;;19.82;40.06;99990.22;4425106;32;19942;-56
2021/05/27 06:01:26;;;;;;;;;;;;;;;19.81;39.96;99999.00;4426515;32;19938;-57
2021/05/27 06:03:52;;;;;;;;;;;;;;;19.90;40.00;99991.16;4418315;32;20560;-58
2021/05/27 06:06:18;;;;;;;;;;;;;;;19.89;39.93;99992.03;4418037;32;19958;-58
2021/05/27 06:08:44;;;;;;;;;;;;;;;19.75;40.27;99996.31;4433064;32;19957;-56
2021/05/27 06:11:10;;;;;;;;;;;;;;;19.78;39.91;99996.34;4424800;32;19958;-56
2021/05/27 06:13:36;;;;;;;;;;;;;;;19.86;40.03;100001.69;4424419;32;20031;-57
2021/05/27 06:16:02;;;;;;;;;;;;;;;19.83;40.12;100001.66;4425180;32;19965;-58
2021/05/27 06:18:28;;;;;;;;;;;;;;;19.88;39.82;100008.75;4424172;32;19986;-59
2021/05/27 06:20:54;;;;;;;;;;;;;;;19.88;39.83;100007.84;4424389;32;19968;-58
2021/05/27 06:23:21;;;;;;;;;;;;;;;19.85;39.98;100019.31;4426027;32;19958;-56
2021/05/27 06:25:47;;;;;;;;;;;;;;;19.90;39.83;100019.34;4425533;32;19942;-57
2021/05/27 06:28:13;;;;;;;;;;;;;;;19.94;39.74;100023.81;4398783;32;19961;-58
2021/05/27 06:30:39;;;;;;;;;;;;;;;19.89;39.85;100025.50;4422637;32;19993;-59
2021/05/27 06:33:05;;;;;;;;;;;;;;;19.90;39.79;100017.56;4424089;32;19950;-57
2021/05/27 06:35:31;;;;;;;;;;;;;;;19.90;39.91;100029.91;4423757;32;20352;-57
2021/05/27 06:37:59;;;;;;;;;;;;;;;19.91;39.79;100029.91;4425711;32;19969;-57
2021/05/27 06:40:25;;;;;;;;;;;;;;;19.94;39.86;100032.66;4422689;32;19953;-58
2021/05/27 06:42:51;;;;;;;;;;;;;;;19.92;39.80;100030.81;4425508;32;19976;-57
2021/05/27 06:45:17;;;;;;;;;;;;;;;19.93;39.85;100028.19;4420185;32;19993;-57
2021/05/27 06:47:43;;;;;;;;;;;;;;;19.96;39.68;100026.47;4423691;32;19957;-57
2021/05/27 06:50:09;;;;;;;;;;;;;;;19.99;39.73;100037.06;4423890;32;19986;-57
2021/05/27 06:52:35;;;;;;;;;;;;;;;20.00;39.69;100034.44;4424462;32;20374;-57
2021/05/27 06:55:01;;;;;;;;;;;;;;;20.01;39.61;100035.31;4423878;32;20001;-58
2021/05/27 06:57:28;;;;;;;;;;;;;;;19.93;39.99;100033.47;4425267;32;19957;-57
2021/05/27 06:59:54;;;;;;;;;;;;;;;20.02;39.64;100031.81;4423604;32;20386;-57
2021/05/27 07:02:19;;;;;;;;;;;;;;;19.99;39.67;100035.28;4424151;32;19947;-58
2021/05/27 07:04:46;;;;;;;;;;;;;;;20.03;39.73;100033.56;4423622;32;20337;-58
2021/05/27 07:07:11;;;;;;;;;;;;;;;20.05;39.58;100032.72;4425016;32;19937;-57
2021/05/27 07:09:39;;;;;;;;;;;;;;;20.05;39.71;100037.09;4424524;32;20377;-56
2021/05/27 07:12:05;;;;;;;;;;;;;;;20.08;39.54;100037.16;4426752;32;20317;-58
2021/05/27 07:14:31;;;;;;;;;;;;;;;20.09;39.50;100033.63;4423538;32;19954;-58
2021/05/27 07:16:57;;;;;;;;;;;;;;;20.08;39.51;100029.22;4424515;32;19965;-58
2021/05/27 07:19:22;;;;;;;;;;;;;;;20.11;39.55;100034.53;4426787;32;20034;-56
2021/05/27 07:21:48;;;;;;;;;;;;;;;20.11;39.55;100042.47;4426832;32;19997;-55
2021/05/27 07:24:14;;;;;;;;;;;;;;;20.08;39.62;100032.72;4426051;32;19950;-57
2021/05/27 07:26:41;;;;;;;;;;;;;;;20.08;39.67;100038.03;4427465;32;19942;-57
2021/05/27 07:29:07;;;;;;;;;;;;;;;20.09;39.67;100033.63;4428130;32;19968;-58
2021/05/27 07:31:33;;;;;;;;;;;;;;;20.08;39.80;100038.03;4427076;32;19977;-58
2021/05/27 07:33:59;;;;;;;;;;;;;;;20.11;39.83;100036.28;4427813;32;19981;-58
2021/05/27 07:36:25;;;;;;;;;;;;;;;20.10;39.82;100035.41;4425781;32;19982;-55
2021/05/27 07:38:51;;;;;;;;;;;;;;;20.14;39.71;100029.25;4427517;32;19986;-58
2021/05/27 07:41:17;;;;;;;;;;;;;;;20.13;39.82;100030.13;4427148;32;19960;-58
2021/05/27 07:43:43;;;;;;;;;;;;;;;20.14;39.92;100029.25;4429405;32;20306;-58
2021/05/27 07:46:08;;;;;;;;;;;;;;;20.08;40.07;100032.72;4419381;32;19989;-57
2021/05/27 07:48:34;;;;;;;;;;;;;;;20.06;40.18;100041.50;4422150;32;19954;-58
2021/05/27 07:51:00;;;;;;;;;;;;;;;20.09;40.11;100033.63;4430402;32;19950;-58
2021/05/27 07:53:29;;;;;;;;;;;;;;;20.08;40.17;100026.59;4432922;32;19990;-57
2021/05/27 07:55:55;;;;;;;;;;;;;;;20.08;40.25;100016.87;4433536;32;19968;-58
2021/05/27 07:58:21;;;;;;;;;;;;;;;20.08;40.23;100029.22;4431503;32;19950;-57
2021/05/27 08:00:47;;;;;;;;;;;;;;;20.08;40.25;100034.50;4417092;32;19950;-59
2021/05/27 08:03:13;;;;;;;;;;;;;;;20.05;40.34;100038.00;4417308;32;19961;-57
2021/05/27 08:05:39;;;;;;;;;;;;;;;20.07;40.34;100038.03;4418080;32;20008;-58
2021/05/27 08:08:05;;;;;;;;;;;;;;;20.06;40.40;100044.16;4418127;32;20323;-56
2021/05/27 08:10:31;;;;;;;;;;;;;;;20.08;40.41;100050.37;4430941;32;19946;-58
2021/05/27 08:12:57;;;;;;;;;;;;;;;20.12;40.41;100046.87;4432850;32;19953;-57
2021/05/27 08:15:23;;;;;;;;;;;;;;;20.11;40.50;100047.75;4418264;32;20041;-58
2021/05/27 08:17:49;;;;;;;;;;;;;;;20.10;40.56;100045.97;4418391;32;20382;-59
2021/05/27 08:20:14;;;;;;;;;;;;;;;19.44;41.93;100044.44;4427505;32;19973;-57
2021/05/27 08:22:40;;;;;;;;;;;;;;;18.78;43.46;100048.00;4433228;32;19958;-57
2021/05/27 08:25:06;;;;;;;;;;;;;;;19.32;42.38;100039.91;4428166;32;19985;-59
2021/05/27 08:27:32;;;;;;;;;;;;;;;19.06;42.64;100055.44;4433533;32;20012;-60
2021/05/27 08:30:00;;;;;;;;;;;;;;;18.85;43.15;100053.38;4423042;32;19987;-59
2021/05/27 08:32:26;;;;;;;;;;;;;;;18.31;44.29;100035.00;4417270;32;19972;-59
2021/05/27 08:34:52;;;;;;;;;;;;;;;18.22;44.88;100049.81;4424207;32;19954;-59
2021/05/27 08:37:17;;;;;;;;;;;;;;;18.37;44.75;100045.66;4431932;32;19957;-60
2021/05/27 08:39:43;;;;;;;;;;;;;;;18.45;44.77;100044.00;4426058;32;19958;-58
2021/05/27 08:42:09;;;;;;;;;;;;;;;18.35;44.92;100050.03;4417662;32;19960;-60
2021/05/27 08:44:36;;;;;;;;;;;;;;;18.20;45.55;100048.88;4421119;32;19968;-59
2021/05/27 08:47:01;;;;;;;;;;;;;;;18.33;45.06;100049.09;4433758;32;20009;-58
2021/05/27 08:49:27;;;;;;;;;;;;;;;18.15;45.63;100054.94;4430111;32;19985;-58
2021/05/27 08:51:53;;;;;;;;;;;;;;;18.25;45.62;100043.69;4418501;32;19982;-58
2021/05/27 08:54:19;;;;;;;;;;;;;;;17.88;46.36;100057.13;4418854;32;20460;-58
2021/05/27 08:56:45;;;;;;;;;;;;;;;17.96;46.05;100060.78;4434225;32;19961;-58
2021/05/27 08:59:11;;;;;;;;;;;;;;;17.98;46.09;100059.06;4432371;32;19973;-58
2021/05/27 09:01:37;;;;;;;;;;;;;;;17.83;46.31;100062.31;4418262;32;19954;-58
2021/05/27 09:04:05;;;;;;;;;;;;;;;17.79;46.16;100056.94;4417666;32;19954;-58
2021/05/27 09:06:31;;;;;;;;;;;;;;;17.93;46.23;100071.25;4417617;32;19958;-58
2021/05/27 09:08:57;;;;;;;;;;;;;;;17.83;46.38;100064.03;4417761;32;19964;-58
2021/05/27 09:11:24;;;;;;;;;;;;;;;17.79;46.26;100070.13;4430820;32;20432;-57
2021/05/27 09:13:50;;;;;;;;;;;;;;;18.05;45.92;100064.47;4431797;32;19968;-56
2021/05/27 09:16:16;;;;;;;;;;;;;;;17.90;46.09;100071.19;4420400;32;20009;-57
2021/05/27 09:18:42;;;;;;;;;;;;;;;17.92;46.73;100069.47;4417850;32;20011;-56
2021/05/27 09:21:08;;;;;;;;;;;;;;;18.12;46.07;100067.22;4427172;32;20022;-55
2021/05/27 09:23:34;;;;;;;;;;;;;;;18.41;45.67;100068.56;4431947;32;20005;-56
2021/05/27 09:26:02;;;;;;;;;;;;;;;18.25;45.94;100065.69;4424133;32;19988;-52
2021/05/27 09:28:28;;;;;;;;;;;;;;;17.73;46.86;100064.75;4399483;32;20395;-51
2021/05/27 09:30:55;;;;;;;;;;;;;;;17.84;46.80;100071.06;4407598;32;19978;-54
2021/05/27 09:33:21;;;;;;;;;;;;;;;18.13;46.53;100068.13;4416360;32;20342;-50
2021/05/27 09:35:47;;;;;;;;;;;;;;;18.11;46.36;100069.84;4417970;32;20032;-55
2021/05/27 09:38:13;;;;;;;;;;;;;;;18.09;46.83;100076.84;4417219;32;20005;-51
2021/05/27 09:40:39;;;;;;;;;;;;;;;17.95;46.84;100072.16;4412807;32;20005;-53
2021/05/27 09:43:05;;;;;;;;;;;;;;;18.20;46.15;100069.97;4407919;32;19985;-55
2021/05/27 09:45:31;;;;;;;;;;;;;;;18.33;46.08;100064.91;4408210;32;19996;-55
2021/05/27 09:47:57;;;;;;;;;;;;;;;18.20;46.50;100064.69;4401556;32;20342;-53
2021/05/27 09:50:31;;;;;;;;;;;;;;;18.33;45.89;100075.44;4401068;32;20001;-55
2021/05/27 09:52:57;;;;;;;;;;;;;;;18.25;45.42;100070.94;4401651;32;20006;-53
2021/05/27 09:55:23;;;;;;;;;;;;;;;17.97;45.35;100073.09;4403226;32;20377;-56
2021/05/27 09:57:49;;;;;;;;;;;;;;;17.84;45.44;100081.63;4417401;32;19977;-55
2021/05/27 10:00:15;;;;;;;;;;;;;;;17.63;45.95;100082.09;4415159;32;19977;-53
2021/05/27 10:02:41;;;;;;;;;;;;;;;17.75;45.99;100086.75;4401073;32;19959;-54
2021/05/27 10:05:08;;;;;;;;;;;;;;;17.58;45.23;100089.03;4403798;32;19955;-46
2021/05/27 10:07:34;;;;;;;;;;;;;;;17.48;45.67;100088.00;4410695;32;19998;-51
2021/05/27 10:10:00;;;;;;;;;;;;;;;18.19;44.63;100084.00;4417615;32;19958;-47
2021/05/27 10:12:26;;;;;;;;;;;;;;;18.64;43.70;100087.38;4417372;32;19962;-50
2021/05/27 10:14:52;;;;;;;;;;;;;;;18.90;43.14;100091.25;4417898;32;19950;-47
2021/05/27 10:17:18;;;;;;;;;;;;;;;19.09;42.70;100079.22;4406143;32;19958;-48
2021/05/27 10:19:44;;;;;;;;;;;;;;;19.23;42.42;100077.63;4409680;32;19993;-51
2021/05/27 10:22:10;;;;;;;;;;;;;;;19.35;42.12;100076.91;4415403;32;19960;-48
2021/05/27 10:24:36;;;;;;;;;;;;;;;19.45;41.95;100079.66;4416266;32;20485;-46
2021/05/27 10:27:02;;;;;;;;;;;;;;;19.54;41.78;100077.09;4408939;32;19980;-47
2021/05/27 10:29:28;;;;;;;;;;;;;;;19.58;41.68;100078.03;4407837;32;20203;-47
2021/05/27 10:31:54;;;;;;;;;;;;;;;19.61;41.62;100081.59;4419769;32;19966;-47
2021/05/27 10:34:19;;;;;;;;;;;;;;;19.65;41.54;100071.97;4425748;32;19953;-46
2021/05/27 10:36:45;;;;;;;;;;;;;;;19.67;41.54;100076.38;4422561;32;20027;-46
2021/05/27 10:39:11;;;;;;;;;;;;;;;19.71;41.54;100066.72;4423997;32;19979;-48
2021/05/27 10:41:37;;;;;;;;;;;;;;;19.76;41.50;100072.06;4424996;32;19944;-44
2021/05/27 10:44:04;;;;;;;;;;;;;;;19.79;41.41;100064.16;4425345;32;20290;-45
2021/05/27 10:46:30;;;;;;;;;;;;;;;19.83;41.50;100073.91;4426417;32;19954;-44
2021/05/27 10:48:55;;;;;;;;;;;;;;;19.88;41.37;100072.19;4414465;32;20371;-49
2021/05/27 10:51:24;;;;;;;;;;;;;;;19.85;41.47;100072.16;4418634;32;20027;-45
2021/05/27 10:53:50;;;;;;;;;;;;;;;19.87;41.41;100070.41;4432415;32;19938;-46
2021/05/27 10:56:16;;;;;;;;;;;;;;;19.89;41.46;100068.66;4431293;32;19969;-50
2021/05/27 10:58:42;;;;;;;;;;;;;;;19.91;41.40;100064.28;4421723;32;19988;-45
2021/05/27 11:01:08;;;;;;;;;;;;;;;19.97;41.22;100065.25;4425307;32;19971;-49
2021/05/27 11:03:34;;;;;;;;;;;;;;;19.99;41.22;100064.37;4427863;32;19953;-50
2021/05/27 11:06:00;;;;;;;;;;;;;;;20.05;41.27;100063.53;4429643;32;19961;-48
2021/05/27 11:08:26;;;;;;;;;;;;;;;20.08;41.04;100067.09;4421538;32;19953;-49
2021/05/27 11:10:52;;;;;;;;;;;;;;;20.10;41.13;100072.41;4422916;32;19954;-48
2021/05/27 11:13:18;;;;;;;;;;;;;;;20.07;41.20;100065.34;4424056;32;20070;-47
2021/05/27 11:15:44;;;;;;;;;;;;;;;20.09;41.06;100070.66;4424884;32;19950;-49
2021/05/27 11:18:10;;;;;;;;;;;;;;;20.13;41.14;100072.44;4422947;32;19958;-48
2021/05/27 11:20:36;;;;;;;;;;;;;;;20.14;41.07;100071.56;4423648;32;19950;-45
2021/05/27 11:23:04;;;;;;;;;;;;;;;20.07;41.17;100070.63;4399699;32;19976;-45
2021/05/27 11:25:31;;;;;;;;;;;;;;;20.08;41.22;100068.88;4408322;32;20338;-49
2021/05/27 11:27:57;;;;;;;;;;;;;;;20.05;41.29;100061.78;4409635;32;19970;-47
2021/05/27 11:30:22;;;;;;;;;;;;;;;20.11;41.20;100068.00;4408522;32;20128;-48
2021/05/27 11:32:49;;;;;;;;;;;;;;;20.11;41.17;100068.91;4407956;32;19950;-48
2021/05/27 11:35:16;;;;;;;;;;;;;;;20.11;41.06;100068.91;4404300;32;19976;-46
2021/05/27 11:37:43;;;;;;;;;;;;;;;20.13;41.01;100066.28;4409723;32;20335;-48
2021/05/27 11:40:09;;;;;;;;;;;;;;;20.26;40.85;100077.81;4404780;32;19986;-48
2021/05/27 11:42:35;;;;;;;;;;;;;;;20.31;40.82;100076.09;4405382;32;19960;-47
2021/05/27 11:45:02;;;;;;;;;;;;;;;20.35;40.66;100072.62;4428396;32;19949;-45
2021/05/27 11:47:28;;;;;;;;;;;;;;;20.35;40.66;100083.19;4413230;32;19978;-50
2021/05/27 11:49:53;;;;;;;;;;;;;;;20.35;40.65;100080.53;4406386;32;20315;-48
2021/05/27 11:52:22;;;;;;;;;;;;;;;20.03;41.03;100087.34;4413732;32;19960;-48
2021/05/27 11:54:47;;;;;;;;;;;;;;;20.17;41.09;100084.78;4400508;32;20046;-45
2021/05/27 11:57:14;;;;;;;;;;;;;;;20.30;40.75;100084.91;4402478;32;19973;-50
2021/05/27 11:59:40;;;;;;;;;;;;;;;20.26;40.91;100077.81;4403759;32;19943;-47
2021/05/27 12:02:06;;;;;;;;;;;;;;;20.30;40.81;100084.91;4403720;32;19958;-50
2021/05/27 12:04:32;;;;;;;;;;;;;;;20.25;40.94;100090.16;4418967;32;20518;-49
2021/05/27 12:06:58;;;;;;;;;;;;;;;20.22;40.78;100091.03;4419183;32;19949;-50
2021/05/27 12:09:24;;;;;;;;;;;;;;;20.19;40.88;100092.75;4431387;32;19972;-48
2021/05/27 12:11:50;;;;;;;;;;;;;;;20.31;40.76;100099.88;4433429;32;19974;-45
2021/05/27 12:14:16;;;;;;;;;;;;;;;20.28;40.83;100097.22;4421275;32;19962;-48
2021/05/27 12:16:42;;;;;;;;;;;;;;;20.30;40.73;100104.31;4403021;32;19950;-44
2021/05/27 12:19:07;;;;;;;;;;;;;;;19.90;41.62;100106.56;4426305;32;19957;-47
2021/05/27 12:21:33;;;;;;;;;;;;;;;20.11;41.22;100100.63;4434410;32;20076;-50
2021/05/27 12:23:59;;;;;;;;;;;;;;;20.20;41.01;100108.63;4424686;32;19997;-46
2021/05/27 12:26:25;;;;;;;;;;;;;;;20.25;40.95;100107.78;4417240;32;20330;-51
2021/05/27 12:28:53;;;;;;;;;;;;;;;20.25;40.77;100108.69;4424439;32;19953;-50
2021/05/27 12:31:19;;;;;;;;;;;;;;;20.19;41.11;100120.09;4430789;32;20046;-48
2021/05/27 12:33:45;;;;;;;;;;;;;;;20.24;40.97;100113.94;4427215;32;19980;-49
2021/05/27 12:36:11;;;;;;;;;;;;;;;20.33;40.67;100119.31;4416401;32;19954;-50
2021/05/27 12:38:37;;;;;;;;;;;;;;;20.37;40.61;100129.03;4424970;32;20021;-48
2021/05/27 12:41:04;;;;;;;;;;;;;;;20.34;40.79;100126.38;4418025;32;19950;-46
2021/05/27 12:43:40;;;;;;;;;;;;;;;20.41;40.71;100129.97;4422942;32;19981;-49
2021/05/27 12:46:06;;;;;;;;;;;;;;;20.41;40.60;100130.81;4432310;32;20611;-51